»·PEaware :: N143VT KSLC-KGJT

N143VT :: KSLC-KGJT

FLIGHT INFORMATION

Flight Status: Arrived
Operator: Privately registered:
United States
More flights under this callsign
Pilot: Anonymous 16492 (16492)
Aircraft: Unknown
(EPIC)
More flights by this aircraft type
Origin: KSLC Salt Lake City Intl
United States
Destination: KGJT Walker
United States
More flights between these airports :: More routes between these airports
Route: SLC4 MTU BONGO MACKS
File this flight plan on PilotEdge
Remarks:
Altitude:
(Current/Filed)
25,000ft
Speed:
(Current/Filed)
400kts
Departed: 12-Jul-18 06:49 PM
Arrived: 12-Jul-18 07:43 PM
Distance/Time
Traveled:
188nm/0:54
Distance/Time
To Go:
Arrived

Flight Plot

Page will automatically refresh every two minutes.

Flight plan parsing failed; only flown route is shown


Map Options




Map Legend


Flown Route
Filed Route
Departure Airport
Arrival Airport
Navaid (VOR, NDB)
Fix

Horizontal Profiles

Position Reports

Time Latitude Longitude Heading Altitude Ground
Speed
12-Jul-18 18:38 40.775013 -111.959898 357 4231ft 0kts
12-Jul-18 18:39 40.775013 -111.959898 357 4231ft 0kts
12-Jul-18 18:40 40.775013 -111.959898 357 4231ft 0kts
12-Jul-18 18:41 40.775013 -111.959898 357 4231ft 0kts
12-Jul-18 18:42 40.775013 -111.959898 357 4231ft 0kts
12-Jul-18 18:43 40.775013 -111.959898 357 4231ft 0kts
12-Jul-18 18:44 40.775013 -111.959898 357 4231ft 0kts
12-Jul-18 18:45 40.775013 -111.959898 357 4231ft 0kts
12-Jul-18 18:46 40.775013 -111.959898 357 4231ft 0kts
12-Jul-18 18:47 40.774833 -111.960599 189 4231ft 10kts
12-Jul-18 18:48 40.772772 -111.960856 234 4231ft 0kts
12-Jul-18 18:49 40.773631 -111.962060 0 4231ft 15kts
12-Jul-18 18:50 40.809304 -111.966351 350 6107ft 163kts
12-Jul-18 18:51 40.855516 -111.972070 353 8630ft 180kts
12-Jul-18 18:52 40.912319 -111.979101 354 9764ft 244kts
12-Jul-18 18:53 40.974903 -111.969906 54 10507ft 238kts
12-Jul-18 18:54 40.956491 -111.895398 120 12148ft 209kts
12-Jul-18 18:55 40.926771 -111.833779 120 13639ft 193kts
12-Jul-18 18:56 40.897476 -111.773352 120 14732ft 198kts
12-Jul-18 18:57 40.867543 -111.711614 120 15767ft 202kts
12-Jul-18 18:58 40.837049 -111.648638 120 16735ft 206kts
12-Jul-18 18:59 40.806109 -111.584624 120 17640ft 210kts
12-Jul-18 19:00 40.775322 -111.520749 120 18484ft 213kts
12-Jul-18 19:01 40.743941 -111.455413 120 19286ft 216kts
12-Jul-18 19:02 40.711920 -111.388484 120 20052ft 219kts
12-Jul-18 19:03 40.679784 -111.320982 120 20765ft 222kts
12-Jul-18 19:04 40.647375 -111.252520 120 21430ft 225kts
12-Jul-18 19:05 40.614379 -111.182476 120 22065ft 227kts
12-Jul-18 19:06 40.581238 -111.111734 120 22663ft 230kts
12-Jul-18 19:07 40.547928 -111.040215 120 23223ft 232kts
12-Jul-18 19:08 40.514336 -110.967663 120 23754ft 235kts
12-Jul-18 19:09 40.480749 -110.894673 120 24254ft 237kts
12-Jul-18 19:10 40.446831 -110.820523 120 24731ft 239kts
12-Jul-18 19:11 40.412135 -110.744304 120 24905ft 253kts
12-Jul-18 19:12 40.375023 -110.662522 120 24887ft 268kts
12-Jul-18 19:13 40.336583 -110.577664 119 24881ft 276kts
12-Jul-18 19:14 40.297470 -110.491218 119 24883ft 280kts
12-Jul-18 19:15 40.257542 -110.403981 119 24883ft 283kts
12-Jul-18 19:16 40.216919 -110.316220 120 24865ft 284kts
12-Jul-18 19:17 40.175950 -110.227564 120 24844ft 285kts
12-Jul-18 19:18 40.134964 -110.138804 120 24833ft 285kts
12-Jul-18 19:19 40.138559 -110.043884 77 24832ft 278kts
12-Jul-18 19:20 40.142786 -109.942461 87 24828ft 281kts
12-Jul-18 19:21 40.140687 -109.838545 89 24828ft 292kts
12-Jul-18 19:22 40.137546 -109.731503 89 24828ft 297kts
12-Jul-18 19:23 40.134152 -109.623053 89 24828ft 300kts
12-Jul-18 19:24 40.130620 -109.513876 89 24828ft 302kts
12-Jul-18 19:25 40.126909 -109.403900 91 24827ft 303kts
12-Jul-18 19:26 40.067689 -109.329508 153 24118ft 329kts
12-Jul-18 19:27 39.980758 -109.279021 157 22550ft 356kts
12-Jul-18 19:28 39.887744 -109.228945 157 20817ft 368kts
12-Jul-18 19:29 39.794408 -109.179151 157 19054ft 350kts
12-Jul-18 19:30 39.706927 -109.132625 157 17299ft 336kts
12-Jul-18 19:31 39.621642 -109.087389 157 15550ft 331kts
12-Jul-18 19:32 39.539565 -109.043995 157 13803ft 309kts
12-Jul-18 19:33 39.465808 -109.005076 157 12145ft 299kts
12-Jul-18 19:34 39.390361 -108.965352 157 10991ft 277kts
12-Jul-18 19:35 39.341443 -108.921522 126 10242ft 255kts
12-Jul-18 19:36 39.301648 -108.849568 123 9001ft 230kts
12-Jul-18 19:37 39.268648 -108.788852 123 8674ft 205kts
12-Jul-18 19:38 39.238470 -108.733499 123 8184ft 164kts
12-Jul-18 19:39 39.210933 -108.683455 121 7602ft 204kts
12-Jul-18 19:40 39.178742 -108.623000 124 6933ft 207kts
12-Jul-18 19:41 39.141704 -108.571820 147 6123ft 170kts
12-Jul-18 19:42 39.107296 -108.533702 132 5687ft 167kts
12-Jul-18 19:43 39.109161 -108.497504 325 5485ft 136kts
12-Jul-18 19:44 39.123974 -108.524591 263 4860ft 21kts
12-Jul-18 19:45 39.123704 -108.525227 223 4860ft 0kts
12-Jul-18 19:46 39.123705 -108.525223 222 4857ft 0kts

Navigation Log

Ident Type
Flight plan parsing failed, navigation log unavailable